Time;durP1;ratioP1;P1;durP2;ratioP2;P2;SDS_P1;SDS_P2;PMS_P1;PMS_P2;Temp;Humidity;BMP_temperature;BMP_pressure;BME280_temperature;BME280_humidity;BME280_pressure;Samples;Min_cycle;Max_cycle;Signal;HPM_P1;HPM_P2
2022/01/06 00:00:58;;;;;;;;;35.25;32.00;;;;;4.95;63.53;101662.97;6217758;22;45559;-81
2022/01/06 00:03:25;;;;;;;;;28.00;26.00;;;;;4.84;63.25;101638.22;6245114;22;45438;-80
2022/01/06 00:05:50;;;;;;;;;30.50;28.75;;;;;4.91;63.51;101653.25;6245159;22;46342;-81
2022/01/06 00:08:17;;;;;;;;;31.75;30.75;;;;;4.86;63.36;101646.97;6243587;22;45315;-82
2022/01/06 00:10:42;;;;;;;;;32.00;30.25;;;;;4.79;63.85;101645.00;6243004;22;45390;-80
2022/01/06 00:13:13;;;;;;;;;36.00;33.00;;;;;4.80;63.69;101652.88;6244538;22;45396;-81
2022/01/06 00:15:56;;;;;;;;;32.25;27.50;;;;;4.86;63.85;101660.03;6241994;22;46431;-82
2022/01/06 00:23:49;;;;;;;;;31.00;29.00;;;;;4.79;63.94;101643.28;6247647;22;45287;-80
2022/01/06 00:26:14;;;;;;;;;30.50;27.75;;;;;4.78;64.05;101646.72;6246951;22;46053;-82
2022/01/06 00:28:42;;;;;;;;;29.75;28.00;;;;;4.93;63.60;101679.41;6246544;22;45696;-81
2022/01/06 00:31:08;;;;;;;;;35.50;25.50;;;;;4.86;63.50;101660.94;6249173;22;45426;-81
2022/01/06 00:33:36;;;;;;;;;31.25;26.00;;;;;4.70;63.82;101644.69;6248594;22;45347;-84
2022/01/06 00:36:02;;;;;;;;;26.75;24.00;;;;;4.81;63.99;101666.78;6224755;22;47865;-83
2022/01/06 00:38:28;;;;;;;;;29.75;27.50;;;;;4.80;63.72;101668.53;6249601;22;45311;-82
2022/01/06 00:40:54;;;;;;;;;30.50;29.25;;;;;4.82;63.79;101669.47;6250371;22;45284;-82
2022/01/06 00:43:22;;;;;;;;;26.25;26.00;;;;;4.84;63.92;101678.25;6252409;22;45286;-82
2022/01/06 00:45:50;;;;;;;;;31.50;27.75;;;;;4.75;63.32;101664.00;6250493;22;45350;-81
2022/01/06 00:48:18;;;;;;;;;27.50;23.00;;;;;4.85;63.97;101685.22;6248119;22;45828;-82
2022/01/06 00:50:44;;;;;;;;;31.75;28.00;;;;;4.81;63.97;101677.22;6223683;22;45360;-82
2022/01/06 00:53:10;;;;;;;;;33.50;29.00;;;;;4.72;63.92;101659.56;6221091;22;45750;-82
2022/01/06 00:55:37;;;;;;;;;31.00;27.75;;;;;4.70;63.99;101665.53;6250035;22;45493;-82
2022/01/06 00:58:04;;;;;;;;;28.00;26.75;;;;;4.84;64.10;101674.75;6249260;22;45406;-84
2022/01/06 01:00:38;;;;;;;;;33.00;27.50;;;;;4.75;63.82;101664.88;6221713;22;45329;-82
2022/01/06 01:03:15;;;;;;;;;34.75;28.75;;;;;4.84;64.28;101682.59;6221297;22;45965;-83
2022/01/06 01:05:45;;;;;;;;;35.00;27.50;;;;;4.80;63.85;101688.50;6249875;22;46464;-84
2022/01/06 01:08:11;;;;;;;;;30.75;28.75;;;;;4.75;63.94;101680.50;6247211;22;45379;-82
2022/01/06 01:10:37;;;;;;;;;28.50;26.00;;;;;4.75;63.84;101690.06;6218529;22;45385;-83
2022/01/06 01:13:04;;;;;;;;;27.25;27.25;;;;;4.62;63.88;101666.19;6248017;22;45393;-80
2022/01/06 01:15:34;;;;;;;;;32.00;29.50;;;;;4.70;63.82;101678.59;6219791;22;47284;-80
2022/01/06 01:18:06;;;;;;;;;27.75;24.25;;;;;4.60;64.11;101678.28;6248654;22;45539;-80
2022/01/06 01:20:33;;;;;;;;;27.75;24.75;;;;;4.59;64.13;101673.00;6247341;22;45240;-79
2022/01/06 01:23:01;;;;;;;;;26.50;25.00;;;;;4.59;64.13;101681.69;6250021;22;45085;-80
2022/01/06 01:25:27;;;;;;;;;30.00;27.75;;;;;4.46;64.57;101663.84;6250151;22;46226;-79
2022/01/06 01:27:55;;;;;;;;;30.50;28.00;;;;;4.41;64.47;101658.47;6251145;22;45342;-78
2022/01/06 01:30:23;;;;;;;;;29.00;27.25;;;;;4.57;64.88;101688.59;6250170;22;45113;-79
2022/01/06 01:32:51;;;;;;;;;15.75;15.00;;;;;4.49;64.30;101682.22;6250136;22;45102;-80
2022/01/06 01:35:17;;;;;;;;;30.00;26.00;;;;;4.39;64.51;101680.09;6246677;22;46193;-80
2022/01/06 01:37:43;;;;;;;;;27.75;22.75;;;;;4.35;64.82;101665.16;6249058;22;45283;-80
2022/01/06 01:40:10;;;;;;;;;26.50;25.50;;;;;4.52;65.00;101697.09;6249643;22;45236;-80
2022/01/06 01:42:39;;;;;;;;;21.75;21.00;;;;;4.45;64.62;101695.09;6222107;22;45311;-81
2022/01/06 01:45:09;;;;;;;;;26.00;25.75;;;;;4.42;64.58;101685.44;6249022;22;46254;-80
2022/01/06 01:47:41;;;;;;;;;27.50;22.50;;;;;4.31;64.99;101681.56;6222145;22;45398;-79
2022/01/06 01:50:20;;;;;;;;;31.75;25.00;;;;;4.33;64.94;101685.06;6249871;22;45278;-81
2022/01/06 01:52:56;;;;;;;;;23.50;21.25;;;;;4.38;64.84;101700.09;6247112;22;45413;-79
2022/01/06 01:55:27;;;;;;;;;27.25;24.00;;;;;4.42;65.28;101707.16;6249823;22;46096;-78
2022/01/06 01:57:59;;;;;;;;;28.00;24.50;;;;;4.26;65.16;101689.19;6249347;22;45373;-80
2022/01/06 02:00:31;;;;;;;;;23.50;20.50;;;;;4.40;64.95;101711.44;6221967;22;45474;-81
2022/01/06 02:03:00;;;;;;;;;33.75;24.50;;;;;4.28;64.82;101691.88;6248827;22;45108;-81
2022/01/06 02:05:27;;;;;;;;;21.75;21.25;;;;;4.33;64.75;101704.22;6221676;22;47161;-80
2022/01/06 02:07:58;;;;;;;;;25.00;23.25;;;;;4.25;64.97;101691.72;6247187;22;45262;-80
2022/01/06 02:10:26;;;;;;;;;23.00;20.50;;;;;4.35;65.02;101709.50;6222127;22;45217;-80
2022/01/06 02:12:54;;;;;;;;;21.00;21.00;;;;;4.33;65.32;101711.13;6246989;22;45429;-80
2022/01/06 02:15:23;;;;;;;;;23.25;19.00;;;;;4.30;65.33;101713.63;6221183;22;48258;-79
2022/01/06 02:17:49;;;;;;;;;25.75;21.50;;;;;4.24;65.77;101703.88;6249135;22;45229;-81
2022/01/06 02:20:17;;;;;;;;;24.00;21.25;;;;;4.30;65.08;101726.66;6249578;22;45175;-81
2022/01/06 02:22:50;;;;;;;;;21.00;20.50;;;;;4.28;65.42;101726.63;6248841;22;45272;-80
2022/01/06 02:25:24;;;;;;;;;27.25;22.25;;;;;4.16;65.30;101719.22;6221426;22;46947;-81
2022/01/06 02:27:51;;;;;;;;;23.50;21.75;;;;;4.18;65.38;101721.91;6221922;22;45250;-80
2022/01/06 02:30:20;;;;;;;;;25.75;18.25;;;;;4.27;65.33;101726.56;6246909;22;45319;-81
2022/01/06 02:32:46;;;;;;;;;25.75;22.75;;;;;4.17;65.49;101709.66;6246715;22;45362;-81
2022/01/06 02:35:16;;;;;;;;;26.75;21.25;;;;;4.20;66.01;101707.22;6248726;22;45253;-82
2022/01/06 02:37:42;;;;;;;;;24.25;22.25;;;;;4.27;65.97;101727.44;6220949;22;45303;-80
2022/01/06 02:40:15;;;;;;;;;22.25;20.75;;;;;4.21;65.86;101708.97;6246799;22;45440;-81
2022/01/06 02:42:48;;;;;;;;;33.25;23.25;;;;;4.18;65.27;101708.88;6221634;22;45391;-80
2022/01/06 02:45:14;;;;;;;;;25.75;24.75;;;;;4.26;65.78;101727.41;6248762;22;46252;-81
2022/01/06 02:47:41;;;;;;;;;20.50;20.50;;;;;4.17;65.75;101705.38;6249184;22;45346;-80
2022/01/06 02:50:08;;;;;;;;;21.75;21.25;;;;;4.22;65.80;101722.88;6247505;22;45358;-80
2022/01/06 02:52:37;;;;;;;;;27.00;24.25;;;;;4.28;65.44;101730.97;6249264;22;45423;-80
2022/01/06 02:55:05;;;;;;;;;21.50;20.00;;;;;4.20;65.62;101707.22;6248965;22;45334;-80
2022/01/06 02:57:36;;;;;;;;;21.25;17.25;;;;;4.16;65.35;101714.00;6248267;22;45318;-80
2022/01/06 03:00:04;;;;;;;;;25.00;20.00;;;;;4.27;65.87;101734.38;6249356;22;45255;-79
2022/01/06 03:02:30;;;;;;;;;24.00;21.00;;;;;4.27;65.86;101748.28;6248555;22;45519;-80
2022/01/06 03:04:55;;;;;;;;;21.75;20.75;;;;;4.14;65.77;101733.00;6246897;22;47175;-80
2022/01/06 03:07:20;;;;;;;;;20.25;19.00;;;;;4.10;65.97;101728.53;6248974;22;45333;-80
2022/01/06 03:09:53;;;;;;;;;14.50;14.00;;;;;4.23;66.27;101745.53;6248939;22;45573;-80
2022/01/06 03:12:20;;;;;;;;;18.00;18.00;;;;;4.29;66.22;101759.66;6248866;22;45156;-81
2022/01/06 03:14:46;;;;;;;;;21.00;20.75;;;;;4.23;66.25;101743.81;6248109;22;46089;-80
2022/01/06 03:17:13;;;;;;;;;20.25;17.75;;;;;4.22;65.90;101749.84;6246321;22;45382;-80
2022/01/06 03:19:40;;;;;;;;;20.00;17.50;;;;;4.24;66.18;101755.13;6248836;22;45305;-80
2022/01/06 03:22:05;;;;;;;;;17.00;13.75;;;;;4.29;66.01;101753.56;6248507;22;45173;-80
2022/01/06 03:24:31;;;;;;;;;22.75;19.50;;;;;4.31;65.91;101762.34;6248961;22;45238;-81
2022/01/06 03:26:58;;;;;;;;;20.25;20.00;;;;;4.33;66.27;101753.75;6246782;22;45668;-81
2022/01/06 03:29:26;;;;;;;;;20.50;15.00;;;;;4.25;66.10;101736.03;6222218;22;45130;-80
2022/01/06 03:31:52;;;;;;;;;16.75;15.00;;;;;4.27;65.65;101744.81;6249372;22;45391;-79
2022/01/06 03:34:17;;;;;;;;;21.75;18.25;;;;;4.25;66.54;101744.75;6246535;22;47888;-81
2022/01/06 03:36:45;;;;;;;;;19.75;19.50;;;;;4.34;65.92;101762.47;6246455;22;45276;-80
2022/01/06 03:39:12;;;;;;;;;21.50;17.75;;;;;4.29;65.84;101750.97;6220822;22;45374;-80
2022/01/06 03:41:38;;;;;;;;;22.75;20.00;;;;;4.22;66.13;101738.53;6245951;22;45280;-81
2022/01/06 03:44:04;;;;;;;;;17.25;15.75;;;;;4.14;65.89;101736.53;6247001;22;47287;-81
2022/01/06 03:46:31;;;;;;;;;21.00;16.00;;;;;4.27;66.03;101752.63;6222510;22;45238;-80
2022/01/06 03:49:04;;;;;;;;;19.75;17.75;;;;;4.12;65.85;101737.31;6249790;22;45373;-80
2022/01/06 03:51:32;;;;;;;;;9.50;9.25;;;;;4.27;65.92;101760.44;6249755;22;45368;-80
2022/01/06 03:53:57;;;;;;;;;17.75;14.00;;;;;4.27;65.89;101763.94;6249477;22;45743;-80
2022/01/06 03:56:28;;;;;;;;;18.25;15.00;;;;;4.20;66.25;101748.91;6222315;22;45415;-79
2022/01/06 03:58:53;;;;;;;;;16.50;15.00;;;;;4.22;66.04;101747.22;6222174;22;45223;-80
2022/01/06 04:01:28;;;;;;;;;17.25;14.75;;;;;4.30;66.19;101769.25;6250047;22;45099;-80
2022/01/06 04:04:01;;;;;;;;;24.50;17.50;;;;;4.28;66.60;101762.25;6250248;22;45277;-80
2022/01/06 04:06:29;;;;;;;;;18.00;15.00;;;;;4.33;66.27;101778.91;6222369;22;45270;-79
2022/01/06 04:08:55;;;;;;;;;16.50;13.50;;;;;4.30;66.43;101773.59;6249777;22;45211;-79
2022/01/06 04:11:20;;;;;;;;;17.75;14.00;;;;;4.32;66.16;101774.53;6250232;22;45309;-80
2022/01/06 04:13:46;;;;;;;;;19.50;17.25;;;;;4.27;66.06;101763.03;6250675;22;45989;-79
2022/01/06 04:16:16;;;;;;;;;17.75;15.50;;;;;4.34;66.49;101773.78;6249901;22;45345;-81
2022/01/06 04:18:44;;;;;;;;;18.50;15.75;;;;;4.32;66.49;101758.91;6222889;22;45163;-80
2022/01/06 04:21:15;;;;;;;;;17.50;14.50;;;;;4.37;66.46;101766.06;6221093;22;45598;-80
2022/01/06 04:23:40;;;;;;;;;14.50;11.50;;;;;4.22;66.35;101739.41;6250406;22;45528;-80
2022/01/06 04:26:08;;;;;;;;;20.00;15.75;;;;;4.23;65.97;101749.03;6251002;22;45170;-79
2022/01/06 04:28:37;;;;;;;;;20.00;15.75;;;;;4.29;66.31;101764.00;6223004;22;45178;-79
2022/01/06 04:31:02;;;;;;;;;19.00;15.00;;;;;4.25;66.32;101746.47;6247733;22;45275;-80
2022/01/06 04:33:30;;;;;;;;;13.00;13.00;;;;;4.22;66.67;101755.03;6250041;22;46299;-79
2022/01/06 04:35:58;;;;;;;;;15.00;15.00;;;;;4.18;66.40;101745.34;6251185;22;45163;-79
2022/01/06 04:38:23;;;;;;;;;22.75;18.00;;;;;4.28;66.18;101767.44;6250398;22;45130;-80
2022/01/06 04:40:49;;;;;;;;;14.00;14.00;;;;;4.19;66.27;101757.53;6249832;22;45117;-80
2022/01/06 04:43:14;;;;;;;;;16.50;13.25;;;;;4.23;66.50;101771.59;6221891;22;46919;-79
2022/01/06 04:45:39;;;;;;;;;19.75;17.25;;;;;4.19;66.46;101758.41;6221956;22;45187;-80
2022/01/06 04:48:05;;;;;;;;;13.75;13.75;;;;;4.13;66.61;101752.09;6247810;22;45487;-80
2022/01/06 04:50:30;;;;;;;;;12.50;12.50;;;;;4.09;66.54;101748.50;6249376;22;45310;-81
2022/01/06 04:52:58;;;;;;;;;12.25;12.25;;;;;4.14;66.47;101759.06;6247174;22;47059;-80
2022/01/06 04:55:25;;;;;;;;;13.00;11.50;;;;;4.13;66.49;101757.31;6221367;22;45360;-80
2022/01/06 04:57:51;;;;;;;;;14.75;13.25;;;;;4.07;66.56;101738.84;6221369;22;45225;-79
2022/01/06 05:00:22;;;;;;;;;17.00;10.75;;;;;4.10;66.43;101757.19;6221777;22;45452;-81
2022/01/06 05:03:20;;;;;;;;;;;;;;;;;;;;;
2022/01/06 05:05:48;;;;;;;;;12.00;12.00;;;;;3.94;66.58;101750.50;6247611;22;72746;-79
2022/01/06 05:08:15;;;;;;;;;12.25;11.25;;;;;4.09;66.75;101786.66;6249642;22;45173;-81
2022/01/06 05:10:41;;;;;;;;;14.50;12.50;;;;;3.96;67.01;101773.16;6249041;22;45302;-79
2022/01/06 05:13:06;;;;;;;;;14.50;13.50;;;;;4.00;66.88;101784.59;6249248;22;45619;-80
2022/01/06 05:15:34;;;;;;;;;17.50;12.75;;;;;3.88;67.14;101766.78;6221898;22;45309;-80
2022/01/06 05:18:02;;;;;;;;;17.25;14.75;;;;;3.85;67.18;101758.84;6222410;22;45287;-79
2022/01/06 05:20:28;;;;;;;;;13.00;12.50;;;;;3.89;67.11;101780.69;6221551;22;45811;-78
2022/01/06 05:22:57;;;;;;;;;15.25;13.25;;;;;3.99;66.92;101801.06;6221568;22;47041;-81
2022/01/06 05:25:27;;;;;;;;;18.50;14.75;;;;;3.87;67.51;101771.91;6250421;22;45367;-81
2022/01/06 05:27:54;;;;;;;;;15.75;14.25;;;;;3.97;67.36;101785.34;6250676;22;45189;-81
2022/01/06 05:30:20;;;;;;;;;20.75;17.00;;;;;3.94;67.43;101793.06;6248935;22;45185;-80
2022/01/06 05:32:49;;;;;;;;;21.00;17.50;;;;;4.03;67.14;101802.06;6248926;22;46135;-80
2022/01/06 05:35:14;;;;;;;;;13.25;13.25;;;;;4.01;67.43;101803.72;6247198;22;45763;-80
2022/01/06 05:37:40;;;;;;;;;17.25;14.00;;;;;3.99;67.46;101801.06;6248531;22;45212;-80
2022/01/06 05:40:08;;;;;;;;;18.00;15.75;;;;;4.09;67.32;101816.25;6251268;22;45161;-80
2022/01/06 05:42:34;;;;;;;;;21.25;18.75;;;;;4.02;67.44;101811.59;6225930;22;46880;-81
2022/01/06 05:45:06;;;;;;;;;18.25;16.75;;;;;3.95;67.29;101809.56;6251733;22;45173;-79
2022/01/06 05:47:32;;;;;;;;;18.00;17.00;;;;;3.96;67.17;101811.38;6225503;22;45210;-80
2022/01/06 05:50:00;;;;;;;;;17.50;17.25;;;;;3.94;66.70;101807.81;6253913;22;45124;-79
2022/01/06 05:52:28;;;;;;;;;20.00;16.75;;;;;3.92;66.69;101812.94;6225897;22;46219;-79
2022/01/06 05:54:56;;;;;;;;;18.50;15.25;;;;;3.93;67.19;101816.47;6223142;22;45399;-80
2022/01/06 05:57:21;;;;;;;;;15.00;13.50;;;;;3.94;66.59;101820.81;6247129;22;45320;-81
2022/01/06 05:59:49;;;;;;;;;17.75;16.75;;;;;3.78;66.88;101801.06;6248665;22;45102;-80
2022/01/06 06:02:14;;;;;;;;;18.50;16.00;;;;;3.83;66.99;101807.38;6248202;22;46296;-81
2022/01/06 06:04:42;;;;;;;;;15.00;14.00;;;;;3.82;66.95;101812.50;6220877;22;45168;-80
2022/01/06 06:07:10;;;;;;;;;18.00;18.00;;;;;3.82;66.80;101825.53;6246950;22;45370;-81
2022/01/06 06:09:35;;;;;;;;;17.00;14.00;;;;;3.77;66.74;101835.78;6219676;22;45206;-81
2022/01/06 06:12:06;;;;;;;;;21.00;17.00;;;;;3.76;66.97;101829.66;6245562;22;47045;-81
2022/01/06 06:14:31;;;;;;;;;24.25;20.50;;;;;3.69;66.79;101821.53;6247523;22;45344;-81
2022/01/06 06:16:57;;;;;;;;;19.00;15.00;;;;;3.72;66.73;101827.75;6245156;22;45421;-81
2022/01/06 06:19:22;;;;;;;;;15.25;14.75;;;;;3.68;66.69;101822.34;6245148;22;45725;-81
2022/01/06 06:21:53;;;;;;;;;18.25;17.00;;;;;3.75;66.69;101837.41;6247346;22;46179;-81
2022/01/06 06:24:20;;;;;;;;;27.75;22.75;;;;;3.72;66.79;101838.19;6247620;22;45222;-81
2022/01/06 06:26:45;;;;;;;;;21.00;21.00;;;;;3.71;66.90;101853.72;6219864;22;45443;-80
2022/01/06 06:29:15;;;;;;;;;18.25;17.75;;;;;3.76;66.91;101847.00;6245563;22;45765;-81
2022/01/06 06:31:41;;;;;;;;;24.25;22.50;;;;;3.69;67.29;101835.44;6247112;22;45590;-81
2022/01/06 06:34:09;;;;;;;;;22.00;18.50;;;;;3.65;67.25;101835.25;6247211;22;45188;-80
2022/01/06 06:36:37;;;;;;;;;23.50;20.75;;;;;3.81;67.25;101855.91;6245293;22;45257;-81
2022/01/06 06:39:04;;;;;;;;;24.25;20.25;;;;;3.75;67.07;101842.63;6219123;22;45379;-81
2022/01/06 06:41:30;;;;;;;;;27.50;21.25;;;;;3.86;67.20;101856.09;6246896;22;45361;-80
2022/01/06 06:43:55;;;;;;;;;21.50;18.25;;;;;3.83;67.25;101845.56;6219939;22;45222;-81
2022/01/06 06:46:23;;;;;;;;;21.50;20.00;;;;;3.87;67.60;101847.44;6247420;22;45251;-81
2022/01/06 06:48:49;;;;;;;;;25.50;20.00;;;;;3.90;67.36;101850.16;6247469;22;45265;-81
2022/01/06 06:51:15;;;;;;;;;22.50;20.25;;;;;4.02;67.35;101863.72;6246814;22;46096;-80
2022/01/06 06:53:41;;;;;;;;;20.50;17.00;;;;;3.94;67.13;101839.06;6219785;22;45423;-81
2022/01/06 06:56:09;;;;;;;;;17.50;16.75;;;;;3.95;67.09;101846.91;6219445;22;45341;-82
2022/01/06 06:58:35;;;;;;;;;22.50;17.50;;;;;3.98;67.35;101849.69;6218961;22;45395;-82
2022/01/06 07:01:00;;;;;;;;;20.25;17.50;;;;;4.03;67.27;101854.16;6244587;22;46155;-81
2022/01/06 07:03:26;;;;;;;;;19.75;17.25;;;;;4.18;66.38;101876.53;6219669;22;45221;-81
2022/01/06 07:05:52;;;;;;;;;21.75;20.00;;;;;4.16;66.67;101867.75;6244724;22;45308;-82
2022/01/06 07:08:17;;;;;;;;;22.25;21.25;;;;;4.12;66.88;101855.44;6246988;22;45434;-82
2022/01/06 07:10:45;;;;;;;;;24.75;20.00;;;;;4.15;66.88;101854.69;6218759;22;48022;-82
2022/01/06 07:13:16;;;;;;;;;17.00;15.00;;;;;4.25;66.65;101869.88;6244334;22;45366;-83
2022/01/06 07:15:43;;;;;;;;;21.00;17.50;;;;;4.30;66.94;101876.13;6218319;22;45245;-82
2022/01/06 07:18:26;;;;;;;;;18.75;15.25;;;;;4.38;66.47;101881.66;6247633;22;45275;-82
2022/01/06 07:20:57;;;;;;;;;19.00;17.50;;;;;4.33;66.35;101870.16;6220348;22;47504;-82
2022/01/06 07:23:23;;;;;;;;;18.25;17.25;;;;;4.30;66.43;101865.69;6248472;22;45410;-83
2022/01/06 07:25:48;;;;;;;;;19.00;18.50;;;;;4.45;66.75;101877.59;6248579;22;45378;-82
2022/01/06 07:28:14;;;;;;;;;17.25;14.75;;;;;4.38;66.48;101866.00;6220727;22;45663;-81
2022/01/06 07:30:39;;;;;;;;;15.50;14.50;;;;;4.48;66.57;101881.19;6248257;22;45535;-81
2022/01/06 07:33:07;;;;;;;;;18.50;16.00;;;;;4.44;66.26;101866.28;6220829;22;45407;-81
2022/01/06 07:35:37;;;;;;;;;16.50;15.00;;;;;4.52;66.58;101875.28;6248407;22;45296;-81
2022/01/06 07:38:02;;;;;;;;;23.50;20.25;;;;;4.55;66.28;101880.63;6219865;22;45488;-81
2022/01/06 07:40:30;;;;;;;;;22.50;18.25;;;;;4.62;66.46;101886.94;6220688;22;48070;-82
2022/01/06 07:42:58;;;;;;;;;19.50;16.25;;;;;4.56;66.13;101882.38;6246854;22;45207;-82
2022/01/06 07:45:24;;;;;;;;;22.25;20.00;;;;;4.66;65.81;101895.78;6248171;22;45209;-82
2022/01/06 07:48:01;;;;;;;;;25.50;21.00;;;;;4.69;65.85;101901.13;6249117;22;45197;-81
2022/01/06 07:50:36;;;;;;;;;18.75;18.00;;;;;4.68;66.19;101908.06;6221633;22;47175;-82
2022/01/06 07:53:02;;;;;;;;;24.50;18.75;;;;;4.62;65.95;101889.56;6219980;22;45438;-82
2022/01/06 07:55:28;;;;;;;;;19.75;14.50;;;;;4.66;65.71;101890.56;6220934;22;45433;-82
2022/01/06 07:57:54;;;;;;;;;21.50;21.50;;;;;4.56;65.97;101874.56;6248057;22;45514;-82
2022/01/06 08:00:22;;;;;;;;;20.25;18.50;;;;;4.59;65.63;101871.19;6221029;22;46308;-82
2022/01/06 08:02:48;;;;;;;;;26.75;22.75;;;;;4.68;65.67;101881.06;6248192;22;45232;-83
2022/01/06 08:05:15;;;;;;;;;21.00;18.75;;;;;4.78;65.75;101904.97;6221552;22;45225;-84
2022/01/06 08:07:43;;;;;;;;;19.75;18.75;;;;;4.67;66.10;101877.56;6249581;22;45284;-87
2022/01/06 08:10:09;;;;;;;;;21.50;18.75;;;;;4.71;65.83;101883.81;6248635;22;46213;-84
2022/01/06 08:12:37;;;;;;;;;26.00;20.00;;;;;4.81;66.07;101898.97;6249748;22;45248;-84
2022/01/06 08:15:04;;;;;;;;;20.50;19.00;;;;;4.84;65.78;101899.13;6256165;22;45129;-83
2022/01/06 08:17:30;;;;;;;;;20.75;19.00;;;;;4.89;65.77;101902.75;6240767;22;44718;-85
2022/01/06 08:19:58;;;;;;;;;26.25;21.50;;;;;4.91;65.89;101902.84;6268804;22;44854;-84
2022/01/06 08:22:23;;;;;;;;;25.00;21.75;;;;;4.78;66.09;101883.22;6264174;22;45398;-85
2022/01/06 08:24:57;;;;;;;;;26.00;21.50;;;;;4.82;65.68;101893.81;6267970;22;44806;-85
2022/01/06 08:27:23;;;;;;;;;19.25;17.75;;;;;4.97;65.41;101913.50;6239059;22;45263;-82
2022/01/06 08:29:55;;;;;;;;;21.75;21.00;;;;;4.83;65.85;101884.28;6235654;22;48013;-84
2022/01/06 08:32:20;;;;;;;;;26.00;25.00;;;;;4.96;65.63;101910.00;6255978;22;45328;-84
2022/01/06 08:34:48;;;;;;;;;29.00;25.50;;;;;4.85;65.69;101895.66;6248476;22;45355;-85
2022/01/06 08:37:14;;;;;;;;;28.50;24.00;;;;;4.95;65.74;101904.75;6248738;22;45494;-84
2022/01/06 08:39:40;;;;;;;;;26.00;19.25;;;;;5.02;65.57;101922.38;6248081;22;46152;-84
2022/01/06 08:42:08;;;;;;;;;26.75;23.25;;;;;4.90;65.54;101901.06;6221175;22;45628;-84
2022/01/06 08:44:45;;;;;;;;;;;;;;;;;;;;;
2022/01/06 08:47:14;;;;;;;;;29.00;26.75;;;;;4.97;65.45;101906.59;6246409;22;71808;-85
2022/01/06 08:49:41;;;;;;;;;23.50;21.00;;;;;4.92;65.53;101888.94;6247350;22;45374;-83
2022/01/06 08:52:06;;;;;;;;;21.25;19.50;;;;;4.98;65.58;101895.31;6247363;22;45198;-84
2022/01/06 08:54:32;;;;;;;;;24.25;21.00;;;;;5.06;65.52;101906.91;6245297;22;45205;-83
2022/01/06 08:56:57;;;;;;;;;27.75;23.75;;;;;5.17;65.62;101920.38;6247696;22;45286;-83
2022/01/06 08:59:25;;;;;;;;;24.00;21.50;;;;;5.14;65.35;101907.19;6220094;22;46846;-83
2022/01/06 09:01:51;;;;;;;;;26.25;24.75;;;;;5.27;65.10;101922.50;6220006;22;45468;-83
2022/01/06 09:04:20;;;;;;;;;30.50;26.50;;;;;5.27;64.67;101919.88;6220270;22;45336;-83
2022/01/06 09:06:49;;;;;;;;;28.25;27.50;;;;;5.36;65.53;101923.66;6247397;22;45520;-84
2022/01/06 09:09:18;;;;;;;;;34.75;32.50;;;;;5.39;65.26;101931.59;6219712;22;47135;-82
2022/01/06 09:11:46;;;;;;;;;26.75;26.00;;;;;5.40;65.41;101920.31;6247407;22;45406;-82
2022/01/06 09:14:12;;;;;;;;;29.25;26.25;;;;;5.38;65.06;101920.28;6247094;22;45235;-82
2022/01/06 09:16:39;;;;;;;;;28.25;24.25;;;;;5.45;64.96;101923.97;6246908;22;45419;-82
2022/01/06 09:19:04;;;;;;;;;31.75;24.75;;;;;5.47;64.90;101923.19;6245438;22;48348;-81
2022/01/06 09:21:37;;;;;;;;;33.50;28.50;;;;;5.47;64.99;101911.88;6247178;22;45314;-81
2022/01/06 09:24:06;;;;;;;;;29.00;28.00;;;;;5.46;65.04;101908.38;6247585;22;45197;-81
2022/01/06 09:26:35;;;;;;;;;31.75;24.25;;;;;5.65;65.06;101932.53;6219912;22;45503;-82
2022/01/06 09:29:04;;;;;;;;;28.50;24.25;;;;;5.70;65.07;101938.81;6219547;22;46859;-83
2022/01/06 09:31:31;;;;;;;;;23.75;21.50;;;;;5.74;64.92;101941.56;6247341;22;45274;-84
2022/01/06 09:34:01;;;;;;;;;30.50;25.00;;;;;5.66;64.78;101919.50;6248106;22;45213;-84
2022/01/06 09:36:27;;;;;;;;;28.00;23.75;;;;;5.74;64.58;101932.84;6219737;22;45343;-84
2022/01/06 09:38:59;;;;;;;;;31.75;25.00;;;;;5.73;65.03;101931.97;6247291;22;45299;-86
2022/01/06 09:41:26;;;;;;;;;37.25;30.75;;;;;5.75;64.93;101926.81;6221124;22;45860;-85
2022/01/06 09:43:54;;;;;;;;;34.75;31.75;;;;;5.77;64.70;101929.47;6249153;22;45150;-84
2022/01/06 09:46:21;;;;;;;;;28.00;27.75;;;;;5.84;64.87;101939.31;6220165;22;45198;-80
2022/01/06 09:48:47;;;;;;;;;34.25;32.00;;;;;5.88;64.49;101947.31;6242425;22;45900;-84
2022/01/06 09:51:14;;;;;;;;;35.50;32.00;;;;;5.84;64.75;101934.97;6245849;22;45588;-86
2022/01/06 09:53:40;;;;;;;;;29.25;26.50;;;;;5.90;64.50;101949.97;6247020;22;45351;-85
2022/01/06 09:56:06;;;;;;;;;30.25;25.50;;;;;5.91;64.37;101949.16;6222920;22;45301;-85
2022/01/06 09:58:34;;;;;;;;;28.25;24.25;;;;;5.94;64.20;101964.97;6245298;22;45376;-86
2022/01/06 10:01:00;;;;;;;;;27.25;24.25;;;;;5.89;64.31;101954.31;6251476;22;45158;-84
2022/01/06 10:03:41;;;;;;;;;26.50;25.50;;;;;5.91;64.15;101952.63;6259481;22;45465;-85
2022/01/06 10:06:21;;;;;;;;;31.50;25.50;;;;;5.89;64.31;101949.06;6232273;22;45336;-86
2022/01/06 10:09:05;;;;;;;;;34.00;29.00;;;;;6.00;64.58;101961.66;6231399;22;47016;-85
2022/01/06 10:11:38;;;;;;;;;36.75;31.50;;;;;5.93;64.43;101944.84;6257485;22;45360;-84
2022/01/06 10:14:09;;;;;;;;;38.50;33.75;;;;;6.09;63.91;101968.06;6232667;22;45552;-84
2022/01/06 10:16:39;;;;;;;;;37.25;32.50;;;;;5.97;64.47;101937.19;6259062;22;45267;-84
2022/01/06 10:19:10;;;;;;;;;31.50;29.50;;;;;6.15;64.17;101962.19;6233704;22;47311;-85
2022/01/06 10:21:50;;;;;;;;;37.25;31.75;;;;;6.07;64.30;101946.25;6233920;22;45479;-83
2022/01/06 10:24:22;;;;;;;;;33.00;29.25;;;;;6.10;64.17;101948.97;6231943;22;45217;-84
2022/01/06 10:27:00;;;;;;;;;36.00;32.25;;;;;6.24;64.25;101957.25;6244591;22;45317;-84
2022/01/06 10:29:29;;;;;;;;;31.25;27.00;;;;;6.13;63.75;101945.56;6217896;22;47936;-83
2022/01/06 10:32:08;;;;;;;;;38.00;34.75;;;;;6.21;63.72;101940.59;6245014;22;45279;-83
2022/01/06 10:34:39;;;;;;;;;28.50;27.50;;;;;6.31;63.59;101946.19;6245130;22;45407;-83
2022/01/06 10:37:25;;;;;;;;;25.50;25.00;;;;;6.44;63.52;101967.50;6216171;22;45649;-85
2022/01/06 10:39:57;;;;;;;;;34.00;29.50;;;;;6.45;63.28;101953.59;6216464;22;45684;-83
2022/01/06 10:42:36;;;;;;;;;30.25;29.25;;;;;6.51;63.25;101953.78;6244232;22;45499;-85
2022/01/06 10:45:09;;;;;;;;;30.25;27.50;;;;;6.57;63.16;101960.09;6216871;22;45213;-86
2022/01/06 10:47:40;;;;;;;;;30.50;25.25;;;;;6.48;63.13;101924.91;6217111;22;45469;-85
2022/01/06 10:50:21;;;;;;;;;28.75;25.75;;;;;6.69;63.02;101950.88;6216154;22;46962;-85
2022/01/06 10:52:51;;;;;;;;;31.25;29.00;;;;;6.80;62.92;101952.09;6216682;22;45319;-85
2022/01/06 10:55:23;;;;;;;;;56.25;42.75;;;;;6.72;63.48;101925.69;6216919;22;45387;-85
2022/01/06 10:58:09;;;;;;;;;22.50;21.25;;;;;6.92;62.64;101947.22;6244530;22;45244;-88
2022/01/06 11:00:40;;;;;;;;;22.75;22.25;;;;;7.02;62.38;101945.78;6241284;22;46709;-79
2022/01/06 11:03:22;;;;;;;;;22.50;16.25;;;;;7.07;62.32;101934.59;6215904;22;45394;-84
2022/01/06 11:05:53;;;;;;;;;20.00;17.25;;;;;7.14;61.98;101929.56;6242641;22;45298;-83
2022/01/06 11:08:43;;;;;;;;;22.75;20.00;;;;;7.17;61.75;101916.56;6243966;22;45484;-81
2022/01/06 11:13:49;;;;;;;;;23.75;23.00;;;;;7.38;61.61;101922.41;6247938;22;45217;-82
2022/01/06 11:16:26;;;;;;;;;20.25;20.00;;;;;7.44;61.79;101885.03;6226170;22;45273;-82
2022/01/06 11:19:23;;;;;;;;;;;;;;;;;;;;;
2022/01/06 11:21:54;;;;;;;;;29.25;27.00;;;;;8.00;61.20;101903.09;6133299;22;73641;-81
2022/01/06 11:24:29;;;;;;;;;24.75;24.75;;;;;8.16;60.91;101892.13;6249792;22;45284;-86
2022/01/06 11:27:42;;;;;;;;;21.50;21.00;;;;;8.41;60.45;101893.63;6243926;22;45380;-85
2022/01/06 11:31:04;;;;;;;;;;;;;;;;;;;;;
2022/01/06 11:34:05;;;;;;;;;26.00;22.25;;;;;8.78;59.64;101911.13;6117967;23;73525;-82
2022/01/06 11:37:51;;;;;;;;;;;;;;;;;;;;;
2022/01/06 12:27:59;;;;;;;;;4.50;4.50;;;;;14.22;47.28;101837.91;5920786;24;45442;-88
2022/01/06 12:30:28;;;;;;;;;4.75;4.00;;;;;14.51;46.62;101829.91;6006627;23;45425;-86